Time;durP1;ratioP1;P1;durP2;ratioP2;P2;SDS_P1;SDS_P2;PMS_P1;PMS_P2;Temp;Humidity;BMP_temperature;BMP_pressure;BME280_temperature;BME280_humidity;BME280_pressure;Samples;Min_cycle;Max_cycle;Signal;HPM_P1;HPM_P2
2021/10/03 00:00:17;;;;;;;12.20;6.68;;;;;;;8.76;90.98;90134.66;5055147;28;20136;-87
2021/10/03 00:02:43;;;;;;;11.15;6.70;;;;;;;8.98;88.07;90121.09;5038412;28;20082;-87
2021/10/03 00:05:11;;;;;;;13.13;7.07;;;;;;;8.65;88.88;90129.22;5038575;28;20032;-87
2021/10/03 00:07:40;;;;;;;10.07;6.72;;;;;;;8.68;89.30;90117.41;5054924;28;20451;-88
2021/10/03 00:10:06;;;;;;;12.32;6.53;;;;;;;8.63;89.85;90107.28;5055067;28;20033;-87
2021/10/03 00:12:31;;;;;;;10.93;6.70;;;;;;;8.75;89.30;90125.34;5021734;28;20025;-87
2021/10/03 00:14:57;;;;;;;12.45;7.00;;;;;;;8.65;89.71;90116.22;5038292;28;20494;-88
2021/10/03 00:17:22;;;;;;;8.95;6.57;;;;;;;8.54;89.15;90118.56;5054523;28;20501;-87
2021/10/03 00:19:48;;;;;;;12.05;6.20;;;;;;;8.70;88.59;90115.97;5037969;28;20028;-87
2021/10/03 00:22:13;;;;;;;9.88;6.80;;;;;;;8.64;88.84;90117.31;5038028;28;20036;-89
2021/10/03 00:24:39;;;;;;;11.52;6.70;;;;;;;8.67;89.49;90114.06;5021485;28;20056;-87
2021/10/03 00:27:04;;;;;;;11.55;6.40;;;;;;;8.79;89.60;90113.22;5021598;28;20025;-87
2021/10/03 00:29:30;;;;;;;10.40;6.65;;;;;;;8.82;91.96;90112.53;5054789;28;20103;-87
2021/10/03 00:31:56;;;;;;;11.27;6.65;;;;;;;8.74;90.10;90113.47;5112617;23;20052;-91
2021/10/03 00:34:21;;;;;;;8.95;5.72;;;;;;;8.80;90.22;90112.88;5040857;28;20390;-91
2021/10/03 00:36:47;;;;;;;10.00;6.13;;;;;;;8.79;90.47;90108.00;5041148;28;20039;-91
2021/10/03 00:39:12;;;;;;;10.48;6.50;;;;;;;8.73;89.73;90104.94;5040964;28;20481;-90
2021/10/03 00:41:38;;;;;;;11.38;7.05;;;;;;;8.70;91.17;90099.66;5047906;28;20017;-94
2021/10/03 00:44:03;;;;;;;9.68;6.10;;;;;;;8.74;90.36;90095.28;5047094;28;20016;-93
2021/10/03 00:46:29;;;;;;;10.95;6.18;;;;;;;8.68;90.08;90109.59;5064083;28;20013;-94
2021/10/03 00:48:54;;;;;;;9.40;5.90;;;;;;;8.65;89.71;90098.03;5027602;28;20036;-90
2021/10/03 00:51:20;;;;;;;8.98;6.07;;;;;;;8.69;90.14;90092.94;5021253;28;20029;-91
2021/10/03 00:53:45;;;;;;;8.98;5.75;;;;;;;8.71;90.02;90098.56;5020699;28;20017;-90
2021/10/03 00:56:15;;;;;;;13.07;6.55;;;;;;;8.70;89.54;90084.81;5020558;28;20028;-91
2021/10/03 00:58:40;;;;;;;11.95;6.45;;;;;;;8.61;89.45;90082.38;5020942;28;20031;-91
2021/10/03 01:01:06;;;;;;;8.57;6.05;;;;;;;8.67;89.88;90082.13;5020242;28;20025;-90
2021/10/03 01:03:31;;;;;;;10.77;6.15;;;;;;;8.70;91.29;90084.06;5020558;28;20017;-91
2021/10/03 01:05:57;;;;;;;11.23;6.28;;;;;;;8.73;90.38;90078.19;5020538;28;20020;-91
2021/10/03 01:08:22;;;;;;;11.85;5.95;;;;;;;8.57;91.00;90081.53;5037141;28;20086;-91
2021/10/03 01:10:48;;;;;;;9.65;6.40;;;;;;;8.63;90.81;90078.69;5036797;28;20078;-91
2021/10/03 01:13:13;;;;;;;11.52;5.95;;;;;;;8.69;89.82;90088.47;5037119;28;20021;-91
2021/10/03 01:15:41;;;;;;;11.90;5.70;;;;;;;8.65;89.79;90076.50;5020263;28;20032;-90
2021/10/03 01:18:07;;;;;;;10.00;5.60;;;;;;;8.65;91.37;90071.31;5036984;28;20104;-90
2021/10/03 01:20:33;;;;;;;11.07;6.10;;;;;;;8.70;91.21;90078.88;5037010;28;20029;-91
2021/10/03 01:23:03;;;;;;;9.60;6.10;;;;;;;8.67;91.02;90071.75;5036654;28;20029;-90
2021/10/03 01:25:29;;;;;;;9.40;6.00;;;;;;;8.70;91.02;90074.44;5037730;28;20021;-90
2021/10/03 01:27:56;;;;;;;12.63;6.55;;;;;;;8.76;91.94;90064.50;5036656;28;20494;-90
2021/10/03 01:30:21;;;;;;;11.05;6.40;;;;;;;8.79;91.27;90071.63;5020025;28;20491;-90
2021/10/03 01:32:47;;;;;;;11.20;6.25;;;;;;;8.84;91.73;90063.59;5036426;28;20025;-90
2021/10/03 01:35:12;;;;;;;9.50;6.35;;;;;;;8.97;90.79;90059.78;5054400;28;20383;-90
2021/10/03 01:37:38;;;;;;;9.45;6.00;;;;;;;8.94;89.25;90065.69;5020029;28;20020;-90
2021/10/03 01:40:05;;;;;;;12.15;7.15;;;;;;;8.93;91.51;90056.38;5036543;28;20024;-91
2021/10/03 01:42:30;;;;;;;10.25;6.35;;;;;;;9.04;91.60;90062.53;5019607;28;20117;-90
2021/10/03 01:44:55;;;;;;;10.52;6.07;;;;;;;9.10;91.46;90053.41;5019521;28;20017;-91
2021/10/03 01:47:21;;;;;;;9.35;6.30;;;;;;;8.89;89.31;90057.38;5019803;28;20131;-90
2021/10/03 01:49:49;;;;;;;9.93;6.18;;;;;;;9.06;90.97;90057.03;5053151;28;20021;-90
2021/10/03 01:52:15;;;;;;;10.18;5.78;;;;;;;9.03;90.90;90045.44;5052610;28;20537;-90
2021/10/03 01:54:40;;;;;;;12.13;5.70;;;;;;;8.94;88.80;90047.50;5018815;28;20124;-91
2021/10/03 01:57:06;;;;;;;9.63;5.38;;;;;;;8.93;88.26;90056.38;5019769;28;20017;-91
2021/10/03 01:59:31;;;;;;;10.90;6.30;;;;;;;8.82;88.93;90045.00;5019751;28;20382;-91
2021/10/03 02:01:58;;;;;;;8.13;5.50;;;;;;;8.69;89.78;90056.56;5019220;28;20020;-90
2021/10/03 02:04:26;;;;;;;9.50;5.82;;;;;;;8.68;91.24;90055.06;5019429;28;20375;-90
2021/10/03 02:06:53;;;;;;;12.57;6.07;;;;;;;8.92;90.30;90026.28;5036267;28;20017;-90
2021/10/03 02:09:19;;;;;;;8.05;5.45;;;;;;;8.72;90.15;90040.31;5036019;28;20029;-90
2021/10/03 02:11:53;;;;;;;9.52;6.30;;;;;;;8.75;91.29;90050.03;5052465;28;20024;-91
2021/10/03 02:14:19;;;;;;;9.48;6.35;;;;;;;8.89;90.99;90026.97;5035757;28;20474;-90
2021/10/03 02:16:45;;;;;;;11.07;6.13;;;;;;;8.89;89.99;90024.34;5035627;28;20067;-90
2021/10/03 02:19:10;;;;;;;12.57;6.47;;;;;;;8.79;91.08;90030.06;5035869;28;20064;-91
2021/10/03 02:21:35;;;;;;;10.73;5.82;;;;;;;9.00;91.16;90016.78;5035768;28;20104;-90
2021/10/03 02:24:01;;;;;;;10.65;5.78;;;;;;;8.92;90.75;90008.09;5019099;28;20048;-89
2021/10/03 02:26:27;;;;;;;9.48;5.75;;;;;;;8.84;90.24;90015.00;5053212;28;20382;-90
2021/10/03 02:28:53;;;;;;;8.10;5.20;;;;;;;8.81;90.07;90020.09;5035591;28;20032;-90
2021/10/03 02:31:18;;;;;;;9.48;5.50;;;;;;;8.83;90.62;90015.31;5018841;28;20029;-90
2021/10/03 02:33:45;;;;;;;10.32;5.88;;;;;;;8.83;91.28;90007.53;5018813;28;20029;-91
2021/10/03 02:36:10;;;;;;;10.05;5.82;;;;;;;8.81;90.64;90002.69;5018865;28;20013;-90
2021/10/03 02:38:36;;;;;;;9.65;6.10;;;;;;;8.86;89.75;90004.25;5051929;28;20309;-90
2021/10/03 02:41:02;;;;;;;8.20;5.45;;;;;;;8.83;89.37;90008.28;5035051;28;20033;-90
2021/10/03 02:43:29;;;;;;;11.68;5.85;;;;;;;8.78;90.41;90000.75;5035107;28;20032;-91
2021/10/03 02:45:55;;;;;;;12.15;6.03;;;;;;;8.81;90.15;90001.94;5018790;28;20021;-91
2021/10/03 02:48:22;;;;;;;8.43;5.45;;;;;;;8.95;91.30;89991.09;5018508;28;20483;-90
2021/10/03 02:50:47;;;;;;;9.38;5.72;;;;;;;8.91;91.29;89995.47;5035289;28;20029;-91
2021/10/03 02:53:14;;;;;;;10.57;5.80;;;;;;;8.92;91.74;89992.50;5018467;28;20095;-91
2021/10/03 02:55:39;;;;;;;10.25;5.85;;;;;;;8.96;91.68;89985.53;5035374;28;20031;-91
2021/10/03 02:58:05;;;;;;;10.80;6.68;;;;;;;8.99;91.55;89981.50;5035176;28;20021;-90
2021/10/03 03:00:32;;;;;;;9.13;5.53;;;;;;;8.97;91.66;89986.28;5035329;28;20023;-90
2021/10/03 03:02:57;;;;;;;9.07;5.50;;;;;;;9.08;92.53;89985.44;5018305;28;20475;-90
2021/10/03 03:05:23;;;;;;;10.65;5.97;;;;;;;9.00;92.37;89983.00;5018211;28;20092;-91
2021/10/03 03:07:48;;;;;;;9.95;5.22;;;;;;;8.92;91.66;89978.75;5035153;28;20390;-91
2021/10/03 03:10:14;;;;;;;10.65;6.30;;;;;;;9.03;91.21;89990.13;5018202;28;20032;-90
2021/10/03 03:12:42;;;;;;;10.10;5.85;;;;;;;9.17;91.20;89989.66;5050918;28;20037;-90
2021/10/03 03:15:08;;;;;;;9.40;5.80;;;;;;;9.19;91.09;89974.50;5018348;28;20486;-91
2021/10/03 03:17:34;;;;;;;11.77;6.13;;;;;;;8.85;90.56;89984.56;5018397;28;20110;-90
2021/10/03 03:20:00;;;;;;;8.18;5.10;;;;;;;9.01;89.15;89979.31;5034630;28;20029;-90
2021/10/03 03:22:28;;;;;;;9.73;5.82;;;;;;;8.86;90.01;89975.66;5034581;28;20047;-90
2021/10/03 03:24:53;;;;;;;10.07;5.95;;;;;;;8.82;90.71;89969.66;5018488;28;20024;-91
2021/10/03 03:27:19;;;;;;;11.38;5.75;;;;;;;8.76;91.02;89983.97;5053548;28;20029;-90
2021/10/03 03:29:44;;;;;;;9.68;6.10;;;;;;;8.74;90.98;89978.41;5034839;28;20032;-90
2021/10/03 03:32:10;;;;;;;10.23;6.35;;;;;;;8.79;91.16;89972.91;5034604;28;20029;-90
2021/10/03 03:34:35;;;;;;;10.82;5.80;;;;;;;8.95;91.38;89971.03;5018192;28;20024;-91
2021/10/03 03:37:00;;;;;;;10.88;5.93;;;;;;;8.82;91.62;89972.25;5018118;28;20028;-91
2021/10/03 03:39:26;;;;;;;11.38;5.97;;;;;;;8.75;92.24;89969.50;5034777;28;20021;-90
2021/10/03 03:41:51;;;;;;;10.25;5.95;;;;;;;8.89;92.07;89956.81;5034366;28;20494;-89
2021/10/03 03:44:23;;;;;;;10.70;5.78;;;;;;;8.86;91.21;89973.06;5035027;28;20455;-90
2021/10/03 03:46:48;;;;;;;15.55;6.00;;;;;;;8.86;90.99;89965.28;5018043;28;20023;-91
2021/10/03 03:49:14;;;;;;;9.15;5.90;;;;;;;8.71;91.43;89976.47;5051135;28;20029;-90
2021/10/03 03:51:39;;;;;;;13.15;5.75;;;;;;;8.74;92.34;89965.41;5052405;28;20036;-91
2021/10/03 03:54:05;;;;;;;9.38;6.00;;;;;;;8.76;92.29;89948.41;5034394;28;20538;-90
2021/10/03 03:56:30;;;;;;;9.75;5.47;;;;;;;8.82;91.31;89954.06;5034450;28;20036;-90
2021/10/03 03:58:55;;;;;;;11.15;5.80;;;;;;;8.81;91.42;89958.50;5034457;28;20029;-90
2021/10/03 04:01:21;;;;;;;12.13;6.18;;;;;;;8.84;91.83;89954.50;5050781;28;20031;-90
2021/10/03 04:03:47;;;;;;;10.68;5.90;;;;;;;8.74;91.67;89955.00;5017757;28;20025;-90
2021/10/03 04:06:12;;;;;;;8.68;6.10;;;;;;;8.67;91.52;89953.00;5018187;28;20055;-90
2021/10/03 04:08:38;;;;;;;9.95;6.05;;;;;;;8.70;91.53;89959.38;5017806;28;20564;-90
2021/10/03 04:11:04;;;;;;;11.57;5.72;;;;;;;8.67;90.62;89950.41;5034683;28;20025;-89
2021/10/03 04:13:30;;;;;;;8.52;5.30;;;;;;;8.71;90.65;89959.03;5018336;28;20413;-90
2021/10/03 04:15:55;;;;;;;9.75;5.60;;;;;;;8.78;90.85;89946.19;5034256;28;20478;-90
2021/10/03 04:18:21;;;;;;;8.75;5.88;;;;;;;8.62;91.63;89948.06;5037141;28;20036;-90
2021/10/03 04:20:46;;;;;;;8.77;5.97;;;;;;;8.61;91.84;89951.75;5038383;28;20024;-91
2021/10/03 04:23:11;;;;;;;9.55;5.90;;;;;;;8.57;91.70;89946.50;5055815;28;20029;-90
2021/10/03 04:25:37;;;;;;;8.23;5.25;;;;;;;8.56;91.71;89955.38;5054376;28;20020;-91
2021/10/03 04:28:02;;;;;;;11.68;5.65;;;;;;;8.53;91.83;89945.66;5021537;28;20033;-90
2021/10/03 04:30:28;;;;;;;9.18;5.78;;;;;;;8.56;91.57;89945.00;5046477;28;20028;-92
2021/10/03 04:32:53;;;;;;;11.57;5.60;;;;;;;8.64;91.59;89945.16;5047712;28;20081;-92
2021/10/03 04:35:19;;;;;;;9.20;6.15;;;;;;;8.60;90.48;89939.88;5040121;28;20539;-90
2021/10/03 04:37:44;;;;;;;11.30;6.00;;;;;;;8.53;91.19;89945.66;5038203;28;20029;-91
2021/10/03 04:40:10;;;;;;;9.80;5.47;;;;;;;8.54;90.07;89941.97;5021293;28;20025;-90
2021/10/03 04:42:35;;;;;;;8.27;5.15;;;;;;;8.49;90.10;89944.84;5037841;28;20028;-91
2021/10/03 04:45:01;;;;;;;9.93;5.60;;;;;;;8.60;90.71;89948.41;5055306;28;20017;-89
2021/10/03 04:47:26;;;;;;;10.07;5.63;;;;;;;8.53;90.91;89942.31;5037353;28;20025;-90
2021/10/03 04:49:54;;;;;;;10.43;5.13;;;;;;;8.55;91.10;89933.13;5021130;28;20475;-90
2021/10/03 04:52:21;;;;;;;10.05;5.85;;;;;;;8.76;91.77;89945.03;5021350;28;20021;-90
2021/10/03 04:54:46;;;;;;;9.13;5.68;;;;;;;8.85;91.68;89938.53;5020839;28;20487;-91
2021/10/03 04:57:12;;;;;;;8.65;4.85;;;;;;;8.79;89.44;89932.09;5037567;28;20027;-91
2021/10/03 04:59:37;;;;;;;9.68;5.50;;;;;;;8.65;89.65;89931.06;5037368;28;20043;-90
2021/10/03 05:02:03;;;;;;;9.40;5.50;;;;;;;8.63;91.38;89941.06;5020553;28;20398;-90
2021/10/03 05:04:28;;;;;;;10.32;6.07;;;;;;;8.73;91.44;89927.53;5020890;28;20021;-91
2021/10/03 05:06:53;;;;;;;9.35;5.63;;;;;;;8.74;90.74;89924.59;5036893;28;20425;-91
2021/10/03 05:09:19;;;;;;;8.15;5.28;;;;;;;8.66;90.01;89930.75;5020510;28;20479;-90
2021/10/03 05:11:44;;;;;;;8.98;5.63;;;;;;;8.97;89.54;89935.06;5037138;28;20541;-90
2021/10/03 05:14:10;;;;;;;10.05;5.30;;;;;;;8.83;89.07;89939.97;5019295;28;20086;-90
2021/10/03 05:16:35;;;;;;;7.47;4.70;;;;;;;8.82;88.56;89933.28;5003950;28;20426;-90
2021/10/03 05:19:01;;;;;;;8.82;5.00;;;;;;;8.66;89.08;89928.13;5020430;28;20628;-89
2021/10/03 05:21:27;;;;;;;7.32;4.95;;;;;;;8.67;89.95;89921.84;5020114;28;20028;-91
2021/10/03 05:23:52;;;;;;;8.88;4.88;;;;;;;8.83;89.05;89919.97;5003978;28;20036;-91
2021/10/03 05:26:17;;;;;;;8.40;5.03;;;;;;;8.81;89.38;89916.19;5003960;28;20063;-91
2021/10/03 05:28:43;;;;;;;9.38;5.35;;;;;;;8.77;89.45;89931.72;5002909;28;20086;-90
2021/10/03 05:31:08;;;;;;;11.60;5.57;;;;;;;8.69;89.73;89921.50;5021462;28;20021;-90
2021/10/03 05:33:34;;;;;;;13.70;5.30;;;;;;;8.76;89.28;89919.03;5020213;28;20025;-90
2021/10/03 05:36:00;;;;;;;9.25;5.07;;;;;;;8.71;89.58;89924.53;5020106;28;20028;-90
2021/10/03 05:38:25;;;;;;;9.68;5.30;;;;;;;8.72;90.24;89923.41;5020443;28;20029;-90
2021/10/03 05:40:50;;;;;;;8.68;5.25;;;;;;;8.79;90.26;89918.38;5003716;28;20025;-90
2021/10/03 05:43:16;;;;;;;9.73;5.72;;;;;;;8.67;91.44;89924.44;5036994;28;20036;-90
2021/10/03 05:45:41;;;;;;;8.75;5.53;;;;;;;8.77;90.29;89949.91;5007403;28;20167;-90
2021/10/03 05:48:07;;;;;;;10.88;5.93;;;;;;;8.89;90.71;89919.69;5004341;28;20032;-90
2021/10/03 05:50:32;;;;;;;12.38;5.95;;;;;;;8.89;91.01;89930.06;5003814;28;20040;-90
2021/10/03 05:52:58;;;;;;;9.15;5.72;;;;;;;8.99;90.64;89927.69;5003486;28;20055;-91
2021/10/03 05:55:23;;;;;;;8.95;5.00;;;;;;;9.15;90.14;89926.88;5003593;28;20394;-91
2021/10/03 05:57:49;;;;;;;11.57;5.90;;;;;;;9.05;90.26;89918.53;5003507;28;20116;-90
2021/10/03 06:00:15;;;;;;;10.15;5.68;;;;;;;9.13;90.80;89919.41;5019689;28;20393;-90
2021/10/03 06:02:40;;;;;;;12.88;5.20;;;;;;;9.19;90.89;89927.72;5036511;28;20025;-90
2021/10/03 06:05:06;;;;;;;11.50;5.25;;;;;;;9.18;90.83;89926.19;5035932;28;20021;-90
2021/10/03 06:07:31;;;;;;;9.23;5.45;;;;;;;9.23;90.17;89925.91;5035886;28;20033;-90
2021/10/03 06:09:57;;;;;;;8.20;5.32;;;;;;;9.29;90.18;89937.53;5019634;28;20112;-90
2021/10/03 06:12:22;;;;;;;7.57;5.07;;;;;;;9.27;90.27;89935.28;5036510;28;20025;-90
2021/10/03 06:14:47;;;;;;;9.82;5.60;;;;;;;9.65;88.55;89933.00;5003226;28;20021;-90
2021/10/03 06:17:13;;;;;;;8.85;5.22;;;;;;;9.58;89.37;89934.38;5036177;28;20021;-90
2021/10/03 06:19:38;;;;;;;9.05;5.25;;;;;;;9.68;88.55;89924.47;5053980;28;20021;-90
2021/10/03 06:22:04;;;;;;;9.05;5.00;;;;;;;9.93;88.07;89925.66;5019538;28;20487;-89
2021/10/03 06:24:29;;;;;;;5.50;4.07;;;;;;;9.88;87.85;89933.00;5035926;28;20051;-90
2021/10/03 06:26:55;;;;;;;6.68;4.45;;;;;;;9.77;88.80;89943.97;5018948;28;20021;-91
2021/10/03 06:29:20;;;;;;;8.70;4.70;;;;;;;9.79;87.57;89939.19;5019795;28;20025;-90
2021/10/03 06:31:46;;;;;;;6.88;4.35;;;;;;;9.92;88.01;89942.34;5102533;23;20509;-86
2021/10/03 06:34:11;;;;;;;8.88;5.13;;;;;;;9.88;88.71;89935.59;5037616;28;20461;-86
2021/10/03 06:36:37;;;;;;;9.55;4.95;;;;;;;9.90;87.99;89952.38;5054575;28;20020;-86
2021/10/03 06:39:03;;;;;;;8.68;4.88;;;;;;;9.94;88.53;89940.19;5037870;28;20020;-85
2021/10/03 06:41:28;;;;;;;7.03;4.57;;;;;;;10.09;87.83;89951.56;5017647;28;20064;-86
2021/10/03 06:43:53;;;;;;;8.82;4.68;;;;;;;10.11;87.90;89953.84;5051051;28;20032;-86
2021/10/03 06:46:19;;;;;;;7.75;4.47;;;;;;;10.19;87.00;89945.03;5052231;28;20017;-86
2021/10/03 06:48:44;;;;;;;7.35;4.28;;;;;;;10.29;86.81;89949.69;5034543;28;20067;-86
2021/10/03 06:51:12;;;;;;;8.18;4.25;;;;;;;10.45;85.11;89952.88;5017945;28;20029;-86
2021/10/03 06:53:37;;;;;;;5.43;3.83;;;;;;;10.62;84.43;89951.66;5034238;28;20482;-86
2021/10/03 06:56:03;;;;;;;8.05;3.95;;;;;;;10.70;84.46;89952.50;5017903;28;20027;-86
2021/10/03 06:58:28;;;;;;;7.95;4.70;;;;;;;10.71;86.10;89948.81;5017830;28;20032;-87
2021/10/03 07:00:53;;;;;;;8.05;4.32;;;;;;;10.90;82.87;89951.28;5018818;28;20021;-87
2021/10/03 07:03:19;;;;;;;7.95;4.63;;;;;;;10.97;84.21;89955.84;5035442;28;20025;-87
2021/10/03 07:05:44;;;;;;;6.13;4.32;;;;;;;11.03;84.62;89958.91;5052764;28;20051;-87
2021/10/03 07:08:12;;;;;;;7.60;4.28;;;;;;;11.03;84.85;89961.53;5018578;28;20021;-87
2021/10/03 07:10:37;;;;;;;7.05;3.92;;;;;;;11.21;83.34;89959.88;5035389;28;20053;-87
2021/10/03 07:13:03;;;;;;;7.03;4.05;;;;;;;11.23;84.28;89966.22;5018035;28;20602;-86
2021/10/03 07:15:28;;;;;;;8.02;4.45;;;;;;;11.27;85.77;89962.91;5051081;28;20062;-86
2021/10/03 07:17:54;;;;;;;7.28;4.35;;;;;;;11.37;83.85;89970.88;5018210;28;20483;-87
2021/10/03 07:20:19;;;;;;;5.80;3.55;;;;;;;11.47;81.95;89972.09;5035110;28;20029;-86
2021/10/03 07:22:44;;;;;;;7.38;4.00;;;;;;;11.55;82.52;89978.91;5035514;28;20474;-86
2021/10/03 07:25:10;;;;;;;6.80;3.65;;;;;;;11.75;79.29;89971.66;5019113;28;20059;-87
2021/10/03 07:27:35;;;;;;;6.57;4.30;;;;;;;11.77;80.20;89994.81;5036019;28;20025;-86
2021/10/03 07:30:01;;;;;;;7.97;4.10;;;;;;;11.91;81.53;89990.53;5035472;28;20025;-86
2021/10/03 07:32:26;;;;;;;6.90;4.20;;;;;;;11.92;83.07;89992.00;5019489;28;20028;-88
2021/10/03 07:34:52;;;;;;;5.70;3.95;;;;;;;11.80;85.17;89979.19;5019195;28;20033;-86
2021/10/03 07:37:17;;;;;;;6.60;4.15;;;;;;;11.91;83.15;89995.75;5019229;28;20017;-85
2021/10/03 07:39:43;;;;;;;6.35;3.92;;;;;;;11.88;82.17;89996.44;5019664;28;20032;-86
2021/10/03 07:42:08;;;;;;;6.00;4.00;;;;;;;12.01;83.43;89967.47;5003133;28;20028;-87
2021/10/03 07:44:33;;;;;;;7.78;4.43;;;;;;;12.03;84.70;89986.91;5023102;28;20029;-86
2021/10/03 07:46:59;;;;;;;7.15;4.00;;;;;;;12.17;83.18;89978.44;5019310;28;20048;-87
2021/10/03 07:49:24;;;;;;;6.97;4.18;;;;;;;12.26;83.59;89984.13;5017877;28;20032;-86
2021/10/03 07:51:50;;;;;;;7.18;4.10;;;;;;;12.32;81.66;89987.91;5017487;28;20021;-87
2021/10/03 07:54:15;;;;;;;5.75;3.63;;;;;;;12.55;77.14;89979.16;5040355;28;20039;-87
2021/10/03 07:56:41;;;;;;;7.35;4.00;;;;;;;12.73;73.57;89985.25;5033858;28;20386;-86
2021/10/03 07:59:06;;;;;;;6.47;3.92;;;;;;;12.82;76.94;89980.44;5007294;28;20032;-87
2021/10/03 08:01:32;;;;;;;7.68;3.95;;;;;;;12.92;76.51;89976.41;5006656;28;20025;-87
2021/10/03 08:03:58;;;;;;;7.72;4.15;;;;;;;12.93;78.80;89983.13;5022242;28;20025;-87
2021/10/03 08:06:23;;;;;;;6.60;4.15;;;;;;;13.15;75.71;89984.03;5023349;28;20025;-86
2021/10/03 08:08:49;;;;;;;6.82;3.70;;;;;;;13.17;73.54;89968.69;5006696;28;20036;-87
2021/10/03 08:11:14;;;;;;;4.63;3.20;;;;;;;13.24;74.09;89986.34;5022467;28;20033;-87
2021/10/03 08:13:40;;;;;;;8.77;3.92;;;;;;;13.38;73.29;89992.38;5039285;28;20020;-86
2021/10/03 08:16:07;;;;;;;6.22;3.30;;;;;;;13.32;72.70;89995.72;5022919;28;20032;-87
2021/10/03 08:18:32;;;;;;;5.85;3.58;;;;;;;13.31;71.60;89991.59;5033944;28;20017;-88
2021/10/03 08:20:57;;;;;;;4.97;2.90;;;;;;;13.34;70.22;89985.63;5047065;28;20049;-86
2021/10/03 08:23:23;;;;;;;5.57;3.63;;;;;;;13.39;69.41;89983.44;5008041;28;20371;-87
2021/10/03 08:25:49;;;;;;;4.75;3.13;;;;;;;13.54;71.55;89970.41;5021512;28;20021;-87
2021/10/03 08:28:15;;;;;;;5.15;3.80;;;;;;;13.58;76.02;89979.78;5013619;28;20482;-86
2021/10/03 08:30:40;;;;;;;5.85;3.63;;;;;;;13.66;79.06;89985.03;5022031;28;20036;-87
2021/10/03 08:33:05;;;;;;;4.95;3.30;;;;;;;13.77;73.73;89975.34;5038695;28;20028;-87
2021/10/03 08:35:31;;;;;;;5.13;3.80;;;;;;;13.81;72.61;89976.09;5010253;28;20044;-89
2021/10/03 08:37:56;;;;;;;7.63;3.72;;;;;;;13.99;72.78;89976.91;5061423;28;20020;-88
2021/10/03 08:40:22;;;;;;;6.20;3.13;;;;;;;14.29;66.91;89976.59;5056166;28;20078;-88
2021/10/03 08:42:47;;;;;;;5.90;3.50;;;;;;;14.50;68.38;89967.28;5022574;28;20032;-88
2021/10/03 08:45:13;;;;;;;4.10;2.70;;;;;;;14.57;65.65;89972.53;5038563;28;20402;-89
2021/10/03 08:47:40;;;;;;;4.30;2.92;;;;;;;14.82;62.75;89977.75;5056026;28;20100;-89
2021/10/03 08:50:09;;;;;;;6.65;3.08;;;;;;;14.80;61.99;89969.50;5040323;28;20101;-90
2021/10/03 08:52:35;;;;;;;5.38;2.80;;;;;;;14.85;62.29;89969.16;5007937;28;20549;-88
2021/10/03 08:55:00;;;;;;;5.25;3.17;;;;;;;14.94;63.80;89974.75;5022516;28;20053;-89
2021/10/03 08:57:27;;;;;;;4.45;2.90;;;;;;;14.94;62.61;89959.00;5022087;28;20363;-90
2021/10/03 09:00:10;;;;;;;4.65;2.80;;;;;;;14.94;65.60;89969.50;5005443;28;20028;-89
2021/10/03 09:03:04;;;;;;;8.55;3.10;;;;;;;15.02;64.12;89975.50;5037556;28;20028;-88
2021/10/03 09:05:32;;;;;;;4.50;2.77;;;;;;;15.00;63.77;89978.50;5038075;28;20031;-87
2021/10/03 09:07:58;;;;;;;4.38;2.70;;;;;;;15.06;63.79;89971.00;5038168;28;20627;-87
2021/10/03 09:10:24;;;;;;;4.05;2.40;;;;;;;15.05;60.73;89979.97;5038489;28;20049;-87
2021/10/03 09:12:49;;;;;;;6.47;2.47;;;;;;;15.23;60.44;89974.69;5005225;28;20116;-87
2021/10/03 09:15:16;;;;;;;4.53;2.25;;;;;;;15.40;57.48;89986.28;5005124;28;20195;-87
2021/10/03 09:17:47;;;;;;;3.85;2.55;;;;;;;15.39;59.71;89979.53;5021949;28;20025;-87
2021/10/03 09:20:15;;;;;;;5.50;2.58;;;;;;;15.44;59.96;89974.66;5037398;28;20028;-87
2021/10/03 09:22:59;;;;;;;4.05;2.88;;;;;;;15.47;62.07;89973.88;5004911;28;20075;-87
2021/10/03 09:25:58;;;;;;;4.15;2.85;;;;;;;15.44;58.45;89984.38;5048643;28;20551;-87
2021/10/03 09:28:23;;;;;;;4.55;2.50;;;;;;;15.41;59.14;89972.03;4990147;28;20041;-87
2021/10/03 09:30:55;;;;;;;4.03;2.60;;;;;;;15.41;60.19;89975.41;5023300;28;20025;-88
2021/10/03 09:33:21;;;;;;;3.75;2.40;;;;;;;15.41;60.63;89964.91;5021107;28;20047;-87
2021/10/03 09:35:59;;;;;;;3.95;2.50;;;;;;;15.64;57.53;89972.31;5000953;28;20379;-87
2021/10/03 09:38:40;;;;;;;4.65;2.20;;;;;;;15.48;57.13;89964.91;5017554;28;20498;-88
2021/10/03 09:41:06;;;;;;;3.35;2.30;;;;;;;15.49;61.08;89976.88;5019118;28;20022;-87
2021/10/03 09:43:48;;;;;;;3.28;2.17;;;;;;;15.44;55.82;89979.13;5018459;28;20070;-87
2021/10/03 09:46:28;;;;;;;5.05;2.33;;;;;;;15.51;57.97;89984.38;5053654;28;20028;-88
2021/10/03 09:48:54;;;;;;;4.03;2.40;;;;;;;15.41;59.07;89988.53;5055349;28;20017;-87
2021/10/03 09:51:19;;;;;;;4.63;1.92;;;;;;;15.39;57.66;90000.53;5036755;28;20398;-88
2021/10/03 09:53:45;;;;;;;4.57;2.40;;;;;;;15.36;56.77;90006.53;5021019;28;20029;-87
2021/10/03 09:56:12;;;;;;;8.10;2.53;;;;;;;15.33;59.53;90015.16;5037286;28;20048;-88
2021/10/03 09:58:38;;;;;;;5.38;2.40;;;;;;;15.28;63.57;90003.94;5037051;28;20043;-87
2021/10/03 10:01:04;;;;;;;3.40;2.25;;;;;;;15.27;64.67;90010.31;5011372;28;20033;-86
2021/10/03 10:03:30;;;;;;;4.47;2.40;;;;;;;15.34;64.57;90012.19;5016885;28;20021;-87
2021/10/03 10:05:56;;;;;;;4.85;2.60;;;;;;;15.38;67.18;90017.44;5027019;28;20399;-87
2021/10/03 10:08:21;;;;;;;4.25;2.42;;;;;;;15.33;63.33;90010.66;5017986;28;20024;-87
2021/10/03 10:10:47;;;;;;;4.20;2.38;;;;;;;15.33;62.35;89999.44;5036896;28;20036;-88
2021/10/03 10:13:14;;;;;;;4.47;2.13;;;;;;;15.20;61.18;89978.84;5036755;28;20440;-87
2021/10/03 10:15:39;;;;;;;3.75;2.25;;;;;;;15.23;69.00;89972.06;5009721;28;20017;-86
2021/10/03 10:18:25;;;;;;;4.47;2.47;;;;;;;15.41;68.76;89985.19;5020490;28;20074;-87
2021/10/03 10:20:53;;;;;;;3.22;2.50;;;;;;;15.48;68.02;89985.16;5054701;28;20048;-88
2021/10/03 10:23:19;;;;;;;5.72;2.50;;;;;;;15.56;65.04;89970.88;5003926;28;20402;-88
2021/10/03 10:25:49;;;;;;;5.03;2.80;;;;;;;15.61;65.90;89970.47;5020242;28;20029;-88
2021/10/03 10:28:17;;;;;;;3.92;2.30;;;;;;;15.66;64.31;89972.75;5054386;28;20021;-87
2021/10/03 10:31:09;;;;;;;3.33;2.20;;;;;;;15.72;63.17;89973.06;5053639;28;20104;-88
2021/10/03 10:33:49;;;;;;;4.10;2.50;;;;;;;15.72;65.59;89965.97;5036658;28;20048;-88
2021/10/03 10:36:22;;;;;;;3.80;2.65;;;;;;;15.72;63.95;89971.22;5036198;28;20017;-88
2021/10/03 10:39:06;;;;;;;3.63;2.50;;;;;;;15.78;62.56;89969.66;5045504;28;20041;-88
2021/10/03 10:41:33;;;;;;;4.28;2.30;;;;;;;15.68;62.78;89967.09;5041074;28;20029;-88
2021/10/03 10:44:41;;;;;;;5.47;2.63;;;;;;;15.67;63.20;89971.59;5033681;28;20120;-90
2021/10/03 10:47:08;;;;;;;3.63;2.55;;;;;;;15.62;63.47;89953.59;5050126;28;20032;-89
2021/10/03 10:49:41;;;;;;;4.32;2.38;;;;;;;15.55;63.02;89958.88;5037947;28;20055;-88
2021/10/03 10:52:19;;;;;;;4.10;2.45;;;;;;;15.47;64.45;89957.38;5039682;28;20040;-89
2021/10/03 10:55:04;;;;;;;3.15;2.22;;;;;;;15.48;62.86;89961.53;5036870;28;20028;-88
2021/10/03 10:57:33;;;;;;;3.97;2.50;;;;;;;15.36;64.13;89972.41;5038499;28;20556;-88
2021/10/03 11:00:20;;;;;;;5.90;2.75;;;;;;;15.37;65.15;89968.66;5021924;28;20033;-87
2021/10/03 11:02:59;;;;;;;5.20;2.42;;;;;;;15.36;63.65;89965.28;5020383;28;20024;-88
2021/10/03 11:05:37;;;;;;;3.58;2.70;;;;;;;15.27;63.24;89959.72;5021328;28;20021;-87
2021/10/03 11:08:19;;;;;;;3.60;2.40;;;;;;;15.14;65.02;89956.72;5054058;28;20032;-88
2021/10/03 11:14:24;;;;;;;5.03;2.70;;;;;;;15.21;63.71;89959.34;5029277;28;20036;-88
2021/10/03 11:16:58;;;;;;;5.38;2.65;;;;;;;15.30;64.56;89962.31;5022341;28;20017;-88
2021/10/03 11:19:44;;;;;;;6.05;2.92;;;;;;;15.28;65.86;89961.19;5005126;28;20034;-88
2021/10/03 11:22:12;;;;;;;4.03;2.30;;;;;;;15.22;64.91;89963.44;5018546;28;20107;-87
2021/10/03 11:24:41;;;;;;;5.57;2.70;;;;;;;15.19;64.34;89963.47;5019703;28;20049;-87
2021/10/03 11:27:11;;;;;;;3.70;2.45;;;;;;;15.13;63.69;89949.25;5038510;28;20025;-88
2021/10/03 11:29:44;;;;;;;5.20;2.53;;;;;;;15.11;64.66;89957.47;5011907;28;20049;-88
2021/10/03 11:32:19;;;;;;;5.25;2.90;;;;;;;15.05;67.11;89964.22;5054577;28;20043;-89
2021/10/03 11:34:46;;;;;;;3.92;2.50;;;;;;;14.95;66.03;89960.50;5045379;28;20368;-88
2021/10/03 11:37:14;;;;;;;3.78;2.20;;;;;;;14.97;66.37;89957.50;5006321;28;20021;-87
2021/10/03 11:39:49;;;;;;;3.70;2.55;;;;;;;14.94;66.71;89960.88;5005672;28;20063;-87